Time;durP1;ratioP1;P1;durP2;ratioP2;P2;SDS_P1;SDS_P2;PMS_P1;PMS_P2;Temp;Humidity;BMP_temperature;BMP_pressure;BME280_temperature;BME280_humidity;BME280_pressure;Samples;Min_cycle;Max_cycle;Signal;HPM_P1;HPM_P2
2023/07/02 00:01:03;;;;;;;;;29.50;24.00;;;;;-146.67;39.72;74463.97;5102185;27;62305;-83
2023/07/02 00:03:29;;;;;;;;;33.00;25.50;;;;;-146.67;39.89;74459.97;5101441;27;61910;-83
2023/07/02 00:05:56;;;;;;;;;28.25;22.50;;;;;-146.67;40.05;74463.97;5101911;27;61803;-82
2023/07/02 00:08:22;;;;;;;;;38.00;29.25;;;;;-146.67;40.00;74475.94;5101858;27;61795;-82
2023/07/02 00:10:47;;;;;;;;;37.50;28.00;;;;;-146.67;40.19;74481.94;5105636;27;61796;-82
2023/07/02 00:13:14;;;;;;;;;41.25;25.75;;;;;-146.67;40.00;74483.94;5104427;27;62258;-82
2023/07/02 00:15:39;;;;;;;;;37.50;28.25;;;;;-146.67;40.42;74499.91;5105375;27;61913;-82
2023/07/02 00:18:05;;;;;;;;;29.75;25.25;;;;;-146.67;40.54;74505.91;5103191;27;61885;-82
2023/07/02 00:20:34;;;;;;;;;38.50;28.25;;;;;-146.67;40.53;74507.91;5105582;27;61737;-82
2023/07/02 00:23:00;;;;;;;;;37.25;32.50;;;;;-146.67;40.68;74511.88;5102882;27;63804;-82
2023/07/02 00:25:26;;;;;;;;;66.25;45.75;;;;;-146.67;40.62;74523.88;5105428;27;61977;-82
2023/07/02 00:27:51;;;;;;;;;59.00;44.50;;;;;-146.67;40.84;74545.81;5105046;27;61910;-82
2023/07/02 00:30:17;;;;;;;;;115.33;85.33;;;;;-146.67;41.32;74559.81;5105083;27;61756;-82
2023/07/02 00:32:42;;;;;;;;;110.33;84.00;;;;;-146.67;41.20;74545.81;5104789;27;61804;-82
2023/07/02 00:35:07;;;;;;;;;117.67;101.00;;;;;-146.67;41.10;74555.81;5104938;27;61746;-82
2023/07/02 00:37:33;;;;;;;;;182.50;138.50;;;;;-146.67;41.30;74555.81;5104761;27;61926;-83
2023/07/02 00:39:58;;;;;;;;;137.67;109.67;;;;;-146.67;41.55;74563.78;5103663;27;61936;-82
2023/07/02 00:42:26;;;;;;;;;61.25;48.25;;;;;-146.67;41.67;74563.78;5104315;27;62780;-82
2023/07/02 00:44:52;;;;;;;;;53.25;36.75;;;;;-146.67;41.65;74565.78;5104971;27;61943;-82
2023/07/02 00:47:17;;;;;;;;;50.25;40.00;;;;;-146.67;41.59;74563.78;5104349;27;62194;-82
2023/07/02 00:49:43;;;;;;;;;43.75;30.75;;;;;-146.67;41.88;74583.75;5104973;27;61953;-83
2023/07/02 00:52:10;;;;;;;;;40.75;29.25;;;;;-146.67;41.85;74571.78;5103466;27;62677;-82
2023/07/02 00:54:36;;;;;;;;;33.00;27.50;;;;;-146.67;41.82;74573.78;5103918;27;61932;-82
2023/07/02 00:57:02;;;;;;;;;33.25;27.25;;;;;-146.67;41.65;74573.78;5103705;27;61980;-82
2023/07/02 00:59:29;;;;;;;;;33.50;28.00;;;;;-146.67;41.85;74583.75;5104656;27;62244;-83
2023/07/02 01:01:56;;;;;;;;;33.25;26.25;;;;;-146.67;42.38;74599.72;5103516;27;61921;-82
2023/07/02 01:04:27;;;;;;;;;30.50;26.50;;;;;-146.67;42.32;74609.72;5103049;27;62037;-82
2023/07/02 01:06:57;;;;;;;;;43.00;28.75;;;;;-146.67;42.66;74613.72;5102911;27;61897;-82
2023/07/02 01:09:22;;;;;;;;;34.50;27.00;;;;;-146.67;42.62;74621.69;5105023;27;61817;-82
2023/07/02 01:11:55;;;;;;;;;44.50;32.25;;;;;-146.67;42.79;74637.66;5096886;27;63983;-82
2023/07/02 01:14:33;;;;;;;;;45.75;32.00;;;;;-146.67;42.69;74649.66;5102885;27;61779;-82
2023/07/02 01:17:01;;;;;;;;;37.75;30.75;;;;;-146.67;42.74;74655.63;5104026;27;61745;-81
2023/07/02 01:19:53;;;;;;;;;41.25;31.50;;;;;-146.67;43.31;74675.59;5103070;27;61794;-81
2023/07/02 01:22:23;;;;;;;;;31.25;24.00;;;;;-146.67;43.33;74679.59;5102699;27;61812;-82
2023/07/02 01:24:50;;;;;;;;;34.50;28.00;;;;;-146.67;43.49;74679.59;5104597;27;61916;-82
2023/07/02 01:27:16;;;;;;;;;34.00;29.00;;;;;-146.67;43.39;74691.56;5103927;27;61757;-82
2023/07/02 01:29:42;;;;;;;;;30.25;26.00;;;;;-146.67;43.73;74691.56;5104524;27;61794;-82
2023/07/02 01:32:11;;;;;;;;;37.25;29.75;;;;;-146.67;43.42;74683.59;5102269;27;63665;-82
2023/07/02 01:34:36;;;;;;;;;38.50;30.00;;;;;-146.67;43.87;74691.56;5104277;27;61746;-82
2023/07/02 01:37:03;;;;;;;;;30.00;23.50;;;;;-146.67;43.57;74693.56;5102407;27;61782;-82
2023/07/02 01:39:29;;;;;;;;;33.50;27.75;;;;;-146.67;43.44;74689.56;5104492;27;61897;-82
2023/07/02 01:42:06;;;;;;;;;37.00;26.25;;;;;-146.67;43.60;74695.56;5103409;27;61784;-81
2023/07/02 01:44:31;;;;;;;;;33.25;28.75;;;;;-146.67;43.77;74707.53;5103793;27;61959;-83
2023/07/02 01:46:58;;;;;;;;;31.50;25.25;;;;;-146.67;44.13;74709.53;5104031;27;61777;-80
2023/07/02 01:49:24;;;;;;;;;32.75;26.50;;;;;-146.67;43.94;74709.53;5103583;27;61757;-82
2023/07/02 01:51:53;;;;;;;;;36.50;27.50;;;;;-146.67;43.69;74701.56;5119249;27;63799;-82
2023/07/02 01:54:20;;;;;;;;;32.00;23.75;;;;;-146.67;44.19;74721.53;5103474;27;61959;-82
2023/07/02 01:56:45;;;;;;;;;33.75;23.75;;;;;-146.67;44.48;74749.47;5104096;27;61737;-82
2023/07/02 01:59:11;;;;;;;;;35.25;22.75;;;;;-146.67;44.50;74751.47;5103906;27;61823;-82
2023/07/02 02:01:40;;;;;;;;;31.00;26.00;;;;;-146.67;45.01;74771.44;5102931;27;61788;-82
2023/07/02 02:04:06;;;;;;;;;35.00;24.00;;;;;-146.67;44.68;74745.47;5103525;27;61796;-82
2023/07/02 02:06:31;;;;;;;;;38.25;28.00;;;;;-146.67;44.64;74757.47;5103606;27;61840;-82
2023/07/02 02:08:57;;;;;;;;;34.00;26.25;;;;;-146.67;44.60;74743.47;5103970;27;61962;-82
2023/07/02 02:11:22;;;;;;;;;41.25;28.00;;;;;-146.67;44.98;74757.47;5102814;27;63166;-82
2023/07/02 02:13:48;;;;;;;;;27.75;21.50;;;;;-146.67;44.98;74759.47;5103157;27;61720;-82
2023/07/02 02:16:14;;;;;;;;;34.00;23.75;;;;;-146.67;45.03;74765.44;5102351;27;61776;-82
2023/07/02 02:18:39;;;;;;;;;33.00;26.50;;;;;-146.67;44.98;74761.44;5101348;27;61801;-82
2023/07/02 02:21:05;;;;;;;;;29.25;23.00;;;;;-146.67;44.87;74763.44;5102887;27;61682;-82
2023/07/02 02:23:30;;;;;;;;;29.50;27.00;;;;;-146.67;44.93;74765.44;5101940;27;62026;-82
2023/07/02 02:25:55;;;;;;;;;39.50;24.50;;;;;-146.67;45.06;74773.44;5103399;27;61811;-81
2023/07/02 02:28:21;;;;;;;;;30.50;25.25;;;;;-146.67;45.18;74791.41;5103404;27;61808;-82
2023/07/02 02:30:46;;;;;;;;;32.50;25.50;;;;;-146.67;45.61;74809.38;5118648;27;63650;-82
2023/07/02 02:33:11;;;;;;;;;27.25;23.75;;;;;-146.67;45.48;74795.41;5101844;27;61789;-82
2023/07/02 02:35:37;;;;;;;;;36.25;27.00;;;;;-146.67;45.01;74781.41;5103133;27;61751;-82
2023/07/02 02:38:04;;;;;;;;;42.25;25.25;;;;;-146.67;45.37;74779.41;5103437;27;61987;-82
2023/07/02 02:40:29;;;;;;;;;31.25;21.25;;;;;-146.67;45.39;74779.41;5102297;27;62819;-82
2023/07/02 02:42:54;;;;;;;;;39.00;27.00;;;;;-146.67;45.37;74771.44;5103142;27;61959;-82
2023/07/02 02:45:20;;;;;;;;;40.50;22.50;;;;;-146.67;45.66;74789.41;5103229;27;61814;-82
2023/07/02 02:47:46;;;;;;;;;34.00;25.00;;;;;-146.67;45.85;74795.41;5118151;27;62158;-82
2023/07/02 02:50:13;;;;;;;;;30.00;25.00;;;;;-146.67;45.52;74781.41;5118317;27;64765;-82
2023/07/02 02:52:38;;;;;;;;;36.75;24.50;;;;;-146.67;45.47;74787.41;5102893;27;61699;-82
2023/07/02 02:55:06;;;;;;;;;36.00;26.00;;;;;-146.67;45.51;74777.44;5102877;27;62024;-82
2023/07/02 02:57:32;;;;;;;;;29.25;24.25;;;;;-146.67;45.04;74789.41;5102954;27;62186;-82
2023/07/02 02:59:58;;;;;;;;;29.00;19.00;;;;;-146.67;45.65;74799.38;5102344;27;61831;-82
2023/07/02 03:02:23;;;;;;;;;26.50;22.25;;;;;-146.67;45.68;74807.38;5102755;27;61821;-82
2023/07/02 03:04:49;;;;;;;;;35.75;24.25;;;;;-146.67;45.65;74809.38;5102901;27;62029;-82
2023/07/02 03:07:15;;;;;;;;;28.00;22.25;;;;;-146.67;45.66;74815.38;5118884;27;61866;-82
2023/07/02 03:09:40;;;;;;;;;33.75;24.00;;;;;-146.67;46.20;74823.34;5102006;27;62901;-83
2023/07/02 03:12:06;;;;;;;;;33.75;28.00;;;;;-146.67;45.69;74817.34;5102531;27;61917;-82
2023/07/02 03:14:32;;;;;;;;;35.50;27.25;;;;;-146.67;45.85;74817.34;5102803;27;62166;-82
2023/07/02 03:16:58;;;;;;;;;31.00;22.25;;;;;-146.67;45.71;74817.34;5101568;27;61747;-82
2023/07/02 03:19:24;;;;;;;;;31.50;21.50;;;;;-146.67;45.72;74833.31;5102030;27;61971;-82
2023/07/02 03:21:49;;;;;;;;;35.50;24.25;;;;;-146.67;45.85;74829.34;5118166;27;61745;-82
2023/07/02 03:24:15;;;;;;;;;24.75;18.25;;;;;-146.67;45.80;74827.34;5118588;27;61902;-82
2023/07/02 03:26:44;;;;;;;;;27.50;21.25;;;;;-146.67;46.39;74847.31;5102795;27;61741;-82
2023/07/02 03:29:10;;;;;;;;;31.25;24.75;;;;;-146.67;46.26;74847.31;5100382;27;63919;-82
2023/07/02 03:31:36;;;;;;;;;28.00;24.25;;;;;-146.67;46.22;74847.31;5102324;27;61781;-82
2023/07/02 03:34:07;;;;;;;;;25.50;20.50;;;;;-146.67;46.52;74857.28;5102534;27;61910;-81
2023/07/02 03:36:33;;;;;;;;;36.75;26.00;;;;;-146.67;47.08;74895.22;5101369;27;62079;-82
2023/07/02 03:38:58;;;;;;;;;30.00;23.25;;;;;-146.67;46.93;74903.22;5101531;27;62017;-82
2023/07/02 03:41:24;;;;;;;;;31.25;23.00;;;;;-146.67;47.14;74911.19;5102498;27;61831;-82
2023/07/02 03:43:50;;;;;;;;;31.25;23.75;;;;;-146.67;47.29;74905.22;5101151;27;61976;-82
2023/07/02 03:46:16;;;;;;;;;32.50;22.75;;;;;-146.67;46.87;74903.22;5105829;27;61840;-81
2023/07/02 03:48:41;;;;;;;;;31.00;23.25;;;;;-146.67;47.12;74911.19;5105084;27;63019;-82
2023/07/02 03:51:07;;;;;;;;;36.25;24.25;;;;;-146.67;47.19;74923.19;5105674;27;61694;-82
2023/07/02 03:53:32;;;;;;;;;28.25;21.25;;;;;-146.67;47.15;74933.16;5105893;27;61892;-82
2023/07/02 03:55:58;;;;;;;;;31.50;24.75;;;;;-146.67;47.28;74931.16;5104499;27;62201;-81
2023/07/02 03:58:23;;;;;;;;;29.00;24.00;;;;;-146.67;47.17;74933.16;5105060;27;62000;-82
2023/07/02 04:00:51;;;;;;;;;31.50;24.50;;;;;-146.67;46.90;74921.19;5104038;27;61761;-82
2023/07/02 04:03:17;;;;;;;;;22.25;21.50;;;;;-146.67;46.82;74903.22;5104575;27;61866;-82
2023/07/02 04:05:43;;;;;;;;;27.50;18.25;;;;;-146.67;46.77;74885.25;5104487;27;62047;-83
2023/07/02 04:08:09;;;;;;;;;29.50;26.25;;;;;-146.67;46.72;74885.25;5105010;27;62152;-82
2023/07/02 04:10:35;;;;;;;;;19.25;18.25;;;;;-146.67;46.47;74885.25;5104181;27;61816;-82
2023/07/02 04:13:00;;;;;;;;;29.75;22.50;;;;;-146.67;46.62;74875.25;5104967;27;62125;-82
2023/07/02 04:15:26;;;;;;;;;32.00;22.00;;;;;-146.67;46.71;74873.25;5105768;27;61776;-82
2023/07/02 04:17:52;;;;;;;;;27.75;22.00;;;;;-146.67;46.34;74873.25;5104306;27;61838;-82
2023/07/02 04:20:18;;;;;;;;;27.25;18.75;;;;;-146.67;46.49;74875.25;5105205;27;61789;-82
2023/07/02 04:22:44;;;;;;;;;25.00;19.25;;;;;-146.67;46.44;74873.25;5121434;27;61679;-82
2023/07/02 04:25:14;;;;;;;;;31.75;22.25;;;;;-146.67;46.64;74869.28;5104064;27;61782;-82
2023/07/02 04:27:43;;;;;;;;;27.25;20.75;;;;;-146.67;46.42;74857.28;5104776;27;61918;-82
2023/07/02 04:30:13;;;;;;;;;26.25;20.75;;;;;-146.67;46.47;74857.28;5104936;27;61925;-83
2023/07/02 04:32:39;;;;;;;;;28.00;23.75;;;;;-146.67;46.43;74853.28;5105441;27;61773;-83
2023/07/02 04:35:08;;;;;;;;;21.00;16.25;;;;;-146.67;46.34;74837.31;5105300;27;61831;-83
2023/07/02 04:37:34;;;;;;;;;26.00;19.75;;;;;-146.67;46.10;74827.34;5104597;27;61798;-83
2023/07/02 04:40:00;;;;;;;;;27.75;21.50;;;;;-146.67;46.04;74825.34;5103549;27;61859;-82
2023/07/02 04:42:27;;;;;;;;;18.25;16.00;;;;;-146.67;45.90;74825.34;5105089;27;62225;-82
2023/07/02 04:44:54;;;;;;;;;31.25;23.00;;;;;-146.67;45.85;74825.34;5121022;27;62020;-83
2023/07/02 04:47:19;;;;;;;;;28.50;17.25;;;;;-146.67;45.90;74831.34;5103929;27;62168;-83
2023/07/02 04:49:45;;;;;;;;;23.25;16.50;;;;;-146.67;45.93;74839.31;5104641;27;61936;-82
2023/07/02 04:52:10;;;;;;;;;27.50;21.50;;;;;-146.67;46.01;74849.31;5104781;27;62228;-82
2023/07/02 04:54:35;;;;;;;;;28.50;22.75;;;;;-146.67;46.15;74843.31;5103702;27;61816;-82
2023/07/02 04:57:01;;;;;;;;;22.25;18.00;;;;;-146.67;45.87;74813.38;5100208;27;63912;-83
2023/07/02 04:59:26;;;;;;;;;29.00;22.50;;;;;-146.67;45.79;74797.38;5102136;27;62004;-83
2023/07/02 05:01:51;;;;;;;;;23.75;21.75;;;;;-146.67;45.57;74797.38;5101995;27;62285;-83
2023/07/02 05:04:17;;;;;;;;;20.50;18.75;;;;;-146.67;45.42;74779.41;5101802;27;61817;-83
2023/07/02 05:06:42;;;;;;;;;18.50;17.00;;;;;-146.67;45.31;74767.44;5104238;27;62744;-83
2023/07/02 05:09:08;;;;;;;;;33.00;21.00;;;;;-146.67;45.31;74769.44;5103953;27;62032;-83
2023/07/02 05:11:33;;;;;;;;;27.00;19.25;;;;;-146.67;44.90;74745.47;5120213;27;61859;-83
2023/07/02 05:13:58;;;;;;;;;20.75;17.50;;;;;-146.67;45.04;74743.47;5103833;27;61806;-82
2023/07/02 05:16:24;;;;;;;;;20.00;16.50;;;;;-146.67;44.87;74727.50;5098370;27;63133;-83
2023/07/02 05:18:49;;;;;;;;;28.50;17.25;;;;;-146.67;44.75;74729.50;5083644;27;61851;-83
2023/07/02 05:21:17;;;;;;;;;23.00;16.50;;;;;-146.67;45.02;74735.50;5114133;27;61821;-83
2023/07/02 05:23:43;;;;;;;;;30.00;21.75;;;;;-146.67;44.64;74711.53;5125308;27;61733;-83
2023/07/02 05:26:08;;;;;;;;;30.00;19.75;;;;;-146.67;44.43;74687.56;5122706;27;64768;-83
2023/07/02 05:28:33;;;;;;;;;19.00;17.00;;;;;-146.67;44.75;74703.56;5123083;27;61999;-83
2023/07/02 05:30:59;;;;;;;;;23.50;17.50;;;;;-146.67;44.39;74691.56;5123490;27;61872;-83
2023/07/02 05:33:24;;;;;;;;;22.75;19.00;;;;;-146.67;44.25;74675.59;5124906;27;61772;-83
2023/07/02 05:35:49;;;;;;;;;30.50;22.50;;;;;-146.67;43.93;74659.63;5122511;27;62854;-83
2023/07/02 05:38:16;;;;;;;;;20.75;18.25;;;;;-146.67;43.75;74633.69;5103492;27;61863;-83
2023/07/02 05:40:41;;;;;;;;;21.75;15.25;;;;;-146.67;43.55;74629.69;5104307;27;61947;-82
2023/07/02 05:43:06;;;;;;;;;14.50;12.50;;;;;-146.67;43.36;74619.69;5104077;27;62116;-83
2023/07/02 05:45:32;;;;;;;;;27.25;18.50;;;;;-146.67;43.53;74619.69;5103530;27;61779;-83
2023/07/02 05:47:57;;;;;;;;;22.25;17.50;;;;;-146.67;43.50;74609.72;5102118;27;61967;-86
2023/07/02 05:50:23;;;;;;;;;25.75;19.00;;;;;-146.67;43.24;74609.72;5103501;27;61984;-87
2023/07/02 05:52:48;;;;;;;;;22.50;17.00;;;;;-146.67;43.33;74621.69;5104137;27;61860;-85
2023/07/02 05:55:14;;;;;;;;;25.50;15.75;;;;;-146.67;43.48;74607.72;5101776;27;63868;-85
2023/07/02 05:57:39;;;;;;;;;22.25;18.50;;;;;-146.67;43.13;74603.72;5103004;27;62054;-85
2023/07/02 06:00:06;;;;;;;;;24.25;18.75;;;;;-146.67;43.09;74609.72;5102280;27;62047;-86
2023/07/02 06:02:31;;;;;;;;;23.25;22.00;;;;;-146.67;43.25;74609.72;5103624;27;61827;-85
2023/07/02 06:04:57;;;;;;;;;29.75;22.75;;;;;-146.67;43.12;74597.75;5101602;27;63601;-81
2023/07/02 06:07:26;;;;;;;;;25.25;18.50;;;;;-146.67;43.19;74593.75;5100570;27;63170;-81
2023/07/02 06:09:52;;;;;;;;;22.00;19.00;;;;;-146.67;42.86;74575.78;5100151;27;61975;-82
2023/07/02 06:12:18;;;;;;;;;25.25;20.50;;;;;-146.67;42.66;74559.81;5102275;27;62009;-81
2023/07/02 06:14:43;;;;;;;;;29.75;20.00;;;;;-146.67;42.54;74563.78;5100183;27;65063;-82
2023/07/02 06:17:09;;;;;;;;;26.50;16.25;;;;;-146.67;42.62;74553.81;5100556;27;61858;-83
2023/07/02 06:19:37;;;;;;;;;21.75;19.75;;;;;-146.67;42.36;74555.81;5103902;27;61962;-84
2023/07/02 06:22:02;;;;;;;;;22.25;19.50;;;;;-146.67;42.39;74553.81;5103172;27;61718;-84
2023/07/02 06:24:28;;;;;;;;;27.50;20.75;;;;;-146.67;42.38;74575.78;5100299;27;63520;-81
2023/07/02 06:26:53;;;;;;;;;25.75;19.00;;;;;-146.67;42.76;74575.78;5102347;27;62012;-83
2023/07/02 06:29:19;;;;;;;;;19.75;18.25;;;;;-146.67;42.47;74563.78;5102662;27;61810;-82
2023/07/02 06:31:44;;;;;;;;;22.00;19.75;;;;;-146.67;42.47;74575.78;5102836;27;62230;-81
2023/07/02 06:34:10;;;;;;;;;17.00;15.25;;;;;-146.67;42.37;74579.78;5102414;27;62818;-81
2023/07/02 06:36:35;;;;;;;;;19.50;17.25;;;;;-146.67;42.39;74559.81;5102729;27;61944;-82
2023/07/02 06:39:00;;;;;;;;;23.75;17.75;;;;;-146.67;42.22;74529.84;5102184;27;61821;-80
2023/07/02 06:41:26;;;;;;;;;22.00;16.25;;;;;-146.67;41.99;74519.88;5101989;27;61832;-81
2023/07/02 06:43:51;;;;;;;;;32.25;23.25;;;;;-146.67;41.91;74533.84;5117321;27;64591;-80
2023/07/02 06:46:17;;;;;;;;;27.00;19.50;;;;;-146.67;41.72;74525.88;5107543;27;61854;-81
2023/07/02 06:48:43;;;;;;;;;16.75;14.75;;;;;-146.67;41.74;74507.91;5101218;27;61940;-80
2023/07/02 06:51:08;;;;;;;;;19.50;18.00;;;;;-146.67;41.58;74495.91;5102587;27;61826;-79
2023/07/02 06:53:35;;;;;;;;;25.50;22.00;;;;;-146.67;41.58;74489.94;5101171;27;61800;-80
2023/07/02 06:56:00;;;;;;;;;23.25;19.75;;;;;-146.67;41.41;74463.97;5100518;27;62008;-81
2023/07/02 06:58:26;;;;;;;;;22.75;18.75;;;;;-146.67;41.20;74471.97;5089933;27;61821;-80
2023/07/02 07:00:51;;;;;;;;;21.75;18.25;;;;;-146.67;41.04;74461.97;5089481;27;62092;-83
2023/07/02 07:03:16;;;;;;;;;23.25;20.00;;;;;-146.67;41.38;74465.97;5100271;27;64697;-81
2023/07/02 07:05:42;;;;;;;;;20.50;18.50;;;;;-146.67;40.94;74444.00;5102099;27;62321;-82
2023/07/02 07:08:07;;;;;;;;;17.75;16.25;;;;;-146.67;41.15;74454.00;5100852;27;61843;-82
2023/07/02 07:10:34;;;;;;;;;16.00;16.00;;;;;-146.67;41.03;74465.97;5101690;27;61743;-82
2023/07/02 07:13:02;;;;;;;;;38.00;23.50;;;;;-146.67;41.13;74463.97;5121140;27;64009;-82
2023/07/02 07:15:29;;;;;;;;;18.25;14.75;;;;;-146.67;41.20;74454.00;5105058;27;61942;-82
2023/07/02 07:17:55;;;;;;;;;23.25;18.25;;;;;-146.67;40.84;74416.06;5100424;27;62032;-83
2023/07/02 07:20:21;;;;;;;;;17.25;11.50;;;;;-146.67;40.77;74416.06;5101462;27;61852;-83
2023/07/02 07:22:46;;;;;;;;;8.75;4.25;;;;;-146.67;40.76;74434.03;5101525;27;61993;-82
2023/07/02 07:25:11;;;;;;;;;24.50;20.00;;;;;-146.67;40.72;74414.06;5100567;27;61862;-83
2023/07/02 07:27:37;;;;;;;;;26.00;22.75;;;;;-146.67;40.58;74390.09;5124073;27;62403;-83
2023/07/02 07:30:03;;;;;;;;;23.75;20.00;;;;;-146.67;40.31;74366.16;5102675;27;61809;-83
2023/07/02 07:32:28;;;;;;;;;27.50;20.25;;;;;-146.67;40.19;74362.16;5100691;27;62112;-83
2023/07/02 07:34:53;;;;;;;;;29.75;19.25;;;;;-146.67;39.80;74324.22;5101002;27;61889;-83
2023/07/02 07:37:19;;;;;;;;;23.25;18.00;;;;;-146.67;39.81;74308.25;5101840;27;61857;-81
2023/07/02 07:39:44;;;;;;;;;24.50;19.50;;;;;-146.67;39.56;74292.28;5102538;27;61864;-82
2023/07/02 07:42:09;;;;;;;;;25.25;20.75;;;;;-146.67;39.10;74290.28;5100250;27;64666;-83
2023/07/02 07:44:35;;;;;;;;;24.00;19.25;;;;;-146.67;39.18;74320.22;5101969;27;62445;-82
2023/07/02 07:47:00;;;;;;;;;25.25;19.25;;;;;-146.67;39.35;74346.19;5102052;27;61814;-81
2023/07/02 07:49:26;;;;;;;;;29.00;23.00;;;;;-146.67;39.59;74354.16;5101240;27;62280;-80
2023/07/02 07:51:52;;;;;;;;;22.25;17.50;;;;;-146.67;39.66;74342.19;5100003;27;63791;-84
2023/07/02 07:54:17;;;;;;;;;25.75;18.50;;;;;-146.67;39.39;74318.25;5097635;27;61960;-83
2023/07/02 07:56:43;;;;;;;;;19.50;18.75;;;;;-146.67;39.15;74310.25;5093294;27;61932;-82
2023/07/02 07:59:08;;;;;;;;;31.75;21.50;;;;;-146.67;38.68;74268.31;5111028;27;61995;-82
2023/07/02 08:01:34;;;;;;;;;24.50;19.50;;;;;-146.67;38.53;74248.38;5115293;27;62051;-81
2023/07/02 08:03:59;;;;;;;;;22.75;18.75;;;;;-146.67;37.86;74228.41;5099938;27;61852;-83
2023/07/02 08:06:25;;;;;;;;;28.00;20.00;;;;;-146.67;38.08;74210.44;5099560;27;61752;-87
2023/07/02 08:08:50;;;;;;;;;23.25;20.75;;;;;-146.67;38.35;74210.44;5099924;27;62930;-89
2023/07/02 08:11:15;;;;;;;;;30.50;19.75;;;;;-146.67;37.87;74200.44;5100696;27;61762;-86
2023/07/02 08:13:41;;;;;;;;;24.25;21.00;;;;;-146.67;37.91;74192.47;5100793;27;61841;-86
2023/07/02 08:16:06;;;;;;;;;24.75;20.50;;;;;-146.67;37.60;74170.50;5092098;27;62160;-86
2023/07/02 08:18:31;;;;;;;;;24.75;20.75;;;;;-146.67;37.21;74170.50;5099362;27;61865;-85
2023/07/02 08:20:57;;;;;;;;;20.75;15.50;;;;;-146.67;36.84;74186.47;5098599;27;63942;-85
2023/07/02 08:23:22;;;;;;;;;25.50;19.50;;;;;-146.67;37.19;74204.44;5100206;27;61725;-86
2023/07/02 08:25:48;;;;;;;;;19.75;16.00;;;;;-146.67;37.52;74210.44;5101741;27;61856;-84
2023/07/02 08:28:13;;;;;;;;;22.75;19.75;;;;;-146.67;37.46;74200.44;5099622;27;62331;-92
2023/07/02 08:30:38;;;;;;;;;22.25;17.25;;;;;-146.67;37.06;74186.47;5101516;27;62846;-86
2023/07/02 08:33:04;;;;;;;;;21.75;18.00;;;;;-146.67;37.10;74200.44;5105280;27;61985;-83
2023/07/02 08:35:29;;;;;;;;;30.25;23.50;;;;;-146.67;36.77;74194.47;5097703;27;61888;-85
2023/07/02 08:37:55;;;;;;;;;25.50;19.25;;;;;-146.67;36.89;74172.50;5100410;27;62131;-81
2023/07/02 08:40:20;;;;;;;;;19.00;16.25;;;;;-146.67;36.99;74164.53;5096846;27;63852;-85
2023/07/02 08:42:49;;;;;;;;;24.75;19.25;;;;;-146.67;36.67;74132.56;5104000;27;61946;-86
2023/07/02 08:45:16;;;;;;;;;26.75;19.75;;;;;-146.67;36.60;74128.59;5117678;27;61925;-85
2023/07/02 08:47:43;;;;;;;;;25.75;19.50;;;;;-146.67;35.97;74136.56;5082929;27;61786;-84
2023/07/02 08:50:08;;;;;;;;;26.75;18.75;;;;;-146.67;36.06;74150.53;5081707;27;61921;-82
2023/07/02 08:52:34;;;;;;;;;22.75;16.25;;;;;-146.67;36.51;74182.50;5099397;27;61918;-84
2023/07/02 08:54:59;;;;;;;;;25.25;21.25;;;;;-146.67;36.40;74208.44;5096924;27;61985;-81
2023/07/02 08:57:24;;;;;;;;;17.00;14.50;;;;;-146.67;36.52;74232.41;5104641;27;61893;-83
2023/07/02 08:59:51;;;;;;;;;19.00;18.50;;;;;-146.67;37.03;74228.41;5103225;27;62285;-84
2023/07/02 09:02:17;;;;;;;;;25.75;18.00;;;;;-146.67;36.58;74172.50;5103644;27;62092;-83
2023/07/02 09:04:42;;;;;;;;;26.00;16.75;;;;;-146.67;36.42;74126.59;5101946;27;61809;-84
2023/07/02 09:07:10;;;;;;;;;18.75;15.75;;;;;-146.67;35.95;74100.63;5104052;27;62162;-80
2023/07/02 09:09:46;;;;;;;;;25.25;17.25;;;;;-146.67;34.93;74090.66;5101660;27;63585;-81
2023/07/02 09:12:29;;;;;;;;;20.50;16.00;;;;;-146.67;34.94;74110.63;5102397;27;61768;-82
2023/07/02 09:15:00;;;;;;;;;21.00;16.00;;;;;-146.67;34.68;74146.56;5091776;27;61783;-83
2023/07/02 09:17:30;;;;;;;;;25.75;18.25;;;;;-146.67;34.92;74152.53;5115409;27;62203;-84
2023/07/02 09:19:58;;;;;;;;;29.75;16.25;;;;;-146.67;34.99;74164.53;5085982;27;64690;-84
2023/07/02 09:22:23;;;;;;;;;21.00;14.25;;;;;-146.67;35.12;74166.50;5102434;27;62512;-84
2023/07/02 09:24:57;;;;;;;;;19.75;15.25;;;;;-146.67;35.34;74170.50;5120181;27;61870;-84
2023/07/02 09:27:42;;;;;;;;;18.75;14.75;;;;;-146.67;35.31;74160.53;5120031;27;61934;-84
2023/07/02 09:30:18;;;;;;;;;21.25;16.50;;;;;-146.67;34.80;74170.50;5103642;27;62782;-83
2023/07/02 09:32:44;;;;;;;;;26.00;18.75;;;;;-146.67;35.13;74176.50;5104420;27;61756;-83
2023/07/02 09:35:10;;;;;;;;;20.00;14.00;;;;;-146.67;35.04;74182.50;5119660;27;61933;-84
2023/07/02 09:37:36;;;;;;;;;14.50;13.00;;;;;-146.67;35.31;74156.53;5104264;27;61992;-83
2023/07/02 09:40:05;;;;;;;;;19.75;14.75;;;;;-146.67;35.04;74158.53;5102399;27;64986;-83
2023/07/02 09:42:32;;;;;;;;;19.75;16.75;;;;;-146.67;34.50;74154.53;5103458;27;61716;-82
2023/07/02 09:45:02;;;;;;;;;16.75;14.50;;;;;-146.67;34.54;74174.50;5103962;27;61788;-83
2023/07/02 09:47:29;;;;;;;;;24.00;22.00;;;;;-146.67;34.49;74180.50;5102914;27;61693;-83
2023/07/02 09:49:59;;;;;;;;;16.50;14.25;;;;;-146.67;35.07;74146.56;5102806;27;63232;-78
2023/07/02 09:52:27;;;;;;;;;21.50;14.25;;;;;-146.67;34.76;74088.66;5122110;27;62133;-83
2023/07/02 09:54:55;;;;;;;;;21.25;15.25;;;;;-146.67;34.04;74040.75;5124476;27;61823;-82
2023/07/02 09:57:20;;;;;;;;;24.25;14.75;;;;;-146.67;33.65;74060.72;5124518;27;61824;-85
2023/07/02 09:59:46;;;;;;;;;20.00;16.25;;;;;-146.67;33.80;74104.63;5123566;27;61972;-83
2023/07/02 10:02:13;;;;;;;;;15.75;14.50;;;;;-146.67;34.16;74126.59;5115691;27;61977;-83
2023/07/02 10:04:46;;;;;;;;;25.50;18.25;;;;;-146.67;33.61;74124.59;5102485;27;62040;-84
2023/07/02 10:07:13;;;;;;;;;18.50;13.75;;;;;-146.67;34.42;74142.56;5103356;27;61773;-77
2023/07/02 10:09:40;;;;;;;;;19.00;16.50;;;;;-146.67;34.17;74136.56;5099644;27;62009;-83
2023/07/02 10:12:22;;;;;;;;;21.00;21.00;;;;;-146.67;34.26;74146.56;5102713;27;61874;-82
2023/07/02 10:14:50;;;;;;;;;19.75;17.25;;;;;-146.67;33.96;74142.56;5098530;27;61984;-82
2023/07/02 10:17:25;;;;;;;;;37.75;29.25;;;;;-146.67;34.10;74168.50;5100792;27;62102;-84
2023/07/02 10:19:52;;;;;;;;;25.75;19.50;;;;;-146.67;34.03;74174.50;5099942;27;61955;-81
2023/07/02 10:22:17;;;;;;;;;20.00;17.75;;;;;-146.67;34.14;74184.47;5102492;27;62100;-81
2023/07/02 10:24:56;;;;;;;;;27.25;23.00;;;;;-146.67;34.08;74194.47;5102837;27;62093;-80
2023/07/02 10:27:36;;;;;;;;;24.00;22.75;;;;;-146.67;33.66;74142.56;5103323;27;61793;-81
2023/07/02 10:30:06;;;;;;;;;30.75;20.75;;;;;-146.67;33.01;74100.63;5082141;27;62324;-81
2023/07/02 10:32:34;;;;;;;;;21.50;14.50;;;;;-146.67;33.04;74112.63;5093804;27;61741;-92
2023/07/02 10:35:02;;;;;;;;;25.75;20.75;;;;;-146.67;32.81;74112.63;5101083;27;62163;-85
2023/07/02 10:37:36;;;;;;;;;36.50;31.50;;;;;-146.67;32.78;74116.59;5101065;27;61954;-88
2023/07/02 10:40:07;;;;;;;;;26.00;17.50;;;;;-146.67;33.10;74108.63;5102273;27;62143;-83
2023/07/02 10:42:33;;;;;;;;;22.00;16.75;;;;;-146.67;32.98;74104.63;5100820;27;61823;-84
2023/07/02 10:44:59;;;;;;;;;19.50;17.75;;;;;-146.67;33.51;74098.66;5100366;27;62152;-84
2023/07/02 10:47:25;;;;;;;;;19.25;15.75;;;;;-146.67;33.30;74064.72;5100991;27;62140;-83
2023/07/02 10:49:51;;;;;;;;;21.75;16.75;;;;;-146.67;32.69;74014.81;5096143;27;63513;-84
2023/07/02 10:52:16;;;;;;;;;16.00;11.75;;;;;-146.67;32.07;73948.94;5082020;28;61803;-84
2023/07/02 10:54:48;;;;;;;;;27.75;24.00;;;;;-146.67;31.56;73920.97;5079965;28;62505;-83
2023/07/02 10:57:21;;;;;;;;;17.50;14.75;;;;;-146.67;31.37;73901.03;5082608;27;62172;-83
2023/07/02 10:59:48;;;;;;;;;16.50;15.75;;;;;-146.67;31.28;73895.03;5080565;27;64202;-85